ANZ247 NZWN-YSSY
Flight info
| Callsign | ANZ247 |
|---|---|
| Flight time | 2h 56m |
| Altitude | 38000 |
| Route | TANEN M636 PLUGA DCT RIKNI DCT MARLN |
| Aircraft | A320/M-SDE3FGHIRWY/LB1 |
Departure
| Time | 2026-04-25 06:13 |
|---|---|
| Airport | Wellington International Airport (NZWN) |
Arrival
| Time | 2026-04-25 09:10 |
|---|---|
| Airport | Sydney Kingsford Smith International Airport (YSSY) |
| Time | Latitude | Longitude | Altitude | Speed | Heading |
|---|---|---|---|---|---|
| 2026-04-25 04:18 | -41.32862 | 174.81004 | 26 ft | 0 kts | 53° |
| 2026-04-25 04:18 | -41.32860 | 174.81008 | 26 ft | 0 kts | 53° |
| 2026-04-25 05:17 | -41.32871 | 174.80989 | 26 ft | 4 kts | 46° |
| 2026-04-25 05:17 | -41.32892 | 174.80967 | 26 ft | 4 kts | 21° |
| 2026-04-25 05:17 | -41.32911 | 174.80963 | 26 ft | 4 kts | 306° |
| 2026-04-25 05:18 | -41.32914 | 174.80969 | 26 ft | 0 kts | 272° |
| 2026-04-25 05:21 | -41.32914 | 174.80970 | 26 ft | 0 kts | 272° |
| 2026-04-25 05:22 | -41.32914 | 174.80969 | 26 ft | 0 kts | 272° |
| 2026-04-25 05:22 | -41.32914 | 174.80959 | 26 ft | 2 kts | 272° |
| 2026-04-25 05:22 | -41.32913 | 174.80931 | 26 ft | 4 kts | 272° |
| 2026-04-25 05:22 | -41.32921 | 174.80891 | 26 ft | 5 kts | 231° |
| 2026-04-25 05:23 | -41.32960 | 174.80871 | 26 ft | 7 kts | 208° |
| 2026-04-25 05:23 | -41.32975 | 174.80810 | 26 ft | 8 kts | 242° |
| 2026-04-25 05:23 | -41.33027 | 174.80794 | 26 ft | 9 kts | 182° |
| 2026-04-25 05:23 | -41.33061 | 174.80792 | 26 ft | 0 kts | 182° |
| 2026-04-25 05:33 | -41.33071 | 174.80792 | 26 ft | 3 kts | 182° |
| 2026-04-25 05:33 | -41.33098 | 174.80790 | 26 ft | 5 kts | 182° |
| 2026-04-25 05:34 | -41.33138 | 174.80788 | 26 ft | 7 kts | 182° |
| 2026-04-25 05:34 | -41.33187 | 174.80785 | 26 ft | 0 kts | 182° |
| 2026-04-25 05:37 | -41.33197 | 174.80784 | 26 ft | 3 kts | 182° |
| 2026-04-25 05:37 | -41.33216 | 174.80783 | 26 ft | 0 kts | 183° |
| 2026-04-25 05:40 | -41.33228 | 174.80782 | 26 ft | 3 kts | 183° |
| 2026-04-25 05:40 | -41.33260 | 174.80780 | 26 ft | 6 kts | 182° |
| 2026-04-25 05:40 | -41.33269 | 174.80780 | 26 ft | 0 kts | 182° |
| 2026-04-25 05:47 | -41.33270 | 174.80780 | 26 ft | 1 kts | 182° |
| 2026-04-25 05:47 | -41.33289 | 174.80779 | 26 ft | 4 kts | 182° |
| 2026-04-25 05:47 | -41.33308 | 174.80778 | 26 ft | 0 kts | 182° |
| 2026-04-25 05:47 | -41.33310 | 174.80777 | 26 ft | 1 kts | 182° |
| 2026-04-25 05:48 | -41.33319 | 174.80777 | 26 ft | 0 kts | 182° |
| 2026-04-25 05:50 | -41.33318 | 174.80777 | 26 ft | 0 kts | 182° |
| 2026-04-25 05:59 | -41.33327 | 174.80777 | 26 ft | 3 kts | 182° |
| 2026-04-25 05:59 | -41.33332 | 174.80776 | 26 ft | 0 kts | 182° |
| 2026-04-25 06:01 | -41.33333 | 174.80776 | 26 ft | 1 kts | 182° |
| 2026-04-25 06:01 | -41.33349 | 174.80775 | 26 ft | 4 kts | 182° |
| 2026-04-25 06:02 | -41.33364 | 174.80775 | 26 ft | 0 kts | 182° |
| 2026-04-25 06:06 | -41.33365 | 174.80775 | 26 ft | 0 kts | 182° |
| 2026-04-25 06:06 | -41.33365 | 174.80774 | 26 ft | 1 kts | 182° |
| 2026-04-25 06:07 | -41.33375 | 174.80774 | 26 ft | 3 kts | 182° |
| 2026-04-25 06:07 | -41.33403 | 174.80772 | 26 ft | 5 kts | 182° |
| 2026-04-25 06:08 | -41.33446 | 174.80770 | 26 ft | 7 kts | 182° |
| 2026-04-25 06:08 | -41.33473 | 174.80768 | 26 ft | 0 kts | 187° |
| 2026-04-25 06:10 | -41.33477 | 174.80767 | 26 ft | 3 kts | 188° |
| 2026-04-25 06:10 | -41.33513 | 174.80720 | 26 ft | 12 kts | 239° |
| 2026-04-25 06:10 | -41.33514 | 174.80642 | 26 ft | 6 kts | 309° |
| 2026-04-25 06:11 | -41.33493 | 174.80637 | 26 ft | 0 kts | 2° |
| 2026-04-25 06:12 | -41.33366 | 174.80645 | 26 ft | 54 kts | 3° |
| 2026-04-25 06:13 | -41.32749 | 174.80686 | 27 ft | 117 kts | 3° |
| 2026-04-25 06:13 | -41.31852 | 174.80750 | 381 ft | 133 kts | 3° |
| 2026-04-25 06:13 | -41.30928 | 174.80809 | 969 ft | 134 kts | 2° |
| 2026-04-25 06:14 | -41.29051 | 174.80938 | 1998 ft | 140 kts | 1° |
| 2026-04-25 06:14 | -41.28003 | 174.81006 | 2159 ft | 162 kts | 0° |
| 2026-04-25 06:14 | -41.26795 | 174.81069 | 2364 ft | 184 kts | 354° |
| 2026-04-25 06:14 | -41.25464 | 174.80803 | 2610 ft | 203 kts | 340° |
| 2026-04-25 06:15 | -41.24141 | 174.80061 | 3226 ft | 210 kts | 334° |
| 2026-04-25 06:15 | -41.22733 | 174.79352 | 3732 ft | 227 kts | 340° |
| 2026-04-25 06:15 | -41.21132 | 174.78760 | 4091 ft | 251 kts | 344° |
| 2026-04-25 06:15 | -41.19401 | 174.78170 | 4742 ft | 262 kts | 344° |
| 2026-04-25 06:16 | -41.17606 | 174.77554 | 5473 ft | 270 kts | 344° |
| 2026-04-25 06:16 | -41.15761 | 174.76908 | 6218 ft | 278 kts | 341° |
| 2026-04-25 06:16 | -41.13986 | 174.75835 | 6936 ft | 282 kts | 325° |
| 2026-04-25 06:16 | -41.12474 | 174.74166 | 7660 ft | 285 kts | 310° |
| 2026-04-25 06:17 | -41.11202 | 174.72137 | 8412 ft | 287 kts | 301° |
| 2026-04-25 06:17 | -41.10408 | 174.69733 | 9141 ft | 286 kts | 279° |
| 2026-04-25 06:17 | -41.10065 | 174.67124 | 9912 ft | 288 kts | 276° |
| 2026-04-25 06:17 | -41.09737 | 174.64484 | 10360 ft | 303 kts | 276° |
| 2026-04-25 06:18 | -41.09502 | 174.62571 | 10497 ft | 319 kts | 276° |
| 2026-04-25 06:18 | -41.09007 | 174.58530 | 10813 ft | 343 kts | 277° |
| 2026-04-25 06:18 | -41.08620 | 174.55423 | 11376 ft | 348 kts | 277° |
| 2026-04-25 06:18 | -41.08218 | 174.52250 | 12019 ft | 351 kts | 277° |
| 2026-04-25 06:19 | -41.07809 | 174.49046 | 12656 ft | 354 kts | 277° |
| 2026-04-25 06:19 | -41.07395 | 174.45812 | 13296 ft | 357 kts | 277° |
| 2026-04-25 06:19 | -41.06978 | 174.42552 | 13936 ft | 360 kts | 278° |
| 2026-04-25 06:19 | -41.06694 | 174.40338 | 14333 ft | 362 kts | 277° |
| 2026-04-25 06:20 | -41.06271 | 174.37034 | 14884 ft | 365 kts | 278° |
| 2026-04-25 06:20 | -41.05844 | 174.33710 | 15427 ft | 368 kts | 278° |
| 2026-04-25 06:20 | -41.05409 | 174.30350 | 15954 ft | 371 kts | 278° |
| 2026-04-25 06:20 | -41.04971 | 174.26964 | 16468 ft | 374 kts | 278° |
| 2026-04-25 06:21 | -41.04532 | 174.23556 | 16981 ft | 377 kts | 278° |
| 2026-04-25 06:21 | -41.04089 | 174.20110 | 17521 ft | 380 kts | 278° |
| 2026-04-25 06:21 | -41.03647 | 174.16692 | 18044 ft | 383 kts | 278° |
| 2026-04-25 06:21 | -41.03193 | 174.13204 | 18580 ft | 387 kts | 278° |
| 2026-04-25 06:22 | -41.02734 | 174.09680 | 19036 ft | 390 kts | 278° |
| 2026-04-25 06:22 | -41.02271 | 174.06133 | 19511 ft | 392 kts | 278° |
| 2026-04-25 06:22 | -41.01804 | 174.02562 | 20013 ft | 395 kts | 278° |
| 2026-04-25 06:22 | -41.01335 | 173.98972 | 20502 ft | 397 kts | 278° |
| 2026-04-25 06:23 | -41.00858 | 173.95353 | 20984 ft | 400 kts | 278° |
| 2026-04-25 06:23 | -41.00375 | 173.91717 | 21435 ft | 402 kts | 278° |
| 2026-04-25 06:23 | -40.99888 | 173.88063 | 21888 ft | 404 kts | 278° |
| 2026-04-25 06:23 | -40.99399 | 173.84391 | 22336 ft | 407 kts | 278° |
| 2026-04-25 06:24 | -40.98905 | 173.80692 | 22764 ft | 409 kts | 278° |
| 2026-04-25 06:24 | -40.98405 | 173.76961 | 23182 ft | 412 kts | 278° |
| 2026-04-25 06:24 | -40.97903 | 173.73222 | 23609 ft | 414 kts | 278° |
| 2026-04-25 06:24 | -40.97398 | 173.69450 | 23989 ft | 417 kts | 278° |
| 2026-04-25 06:25 | -40.96894 | 173.65669 | 24334 ft | 419 kts | 278° |
| 2026-04-25 06:25 | -40.96385 | 173.61856 | 24697 ft | 421 kts | 278° |
| 2026-04-25 06:25 | -40.95874 | 173.58035 | 25041 ft | 423 kts | 278° |
| 2026-04-25 06:25 | -40.95363 | 173.54245 | 25375 ft | 425 kts | 278° |
| 2026-04-25 06:26 | -40.94836 | 173.50383 | 25706 ft | 427 kts | 278° |
| 2026-04-25 06:26 | -40.94304 | 173.46499 | 25973 ft | 431 kts | 278° |
| 2026-04-25 06:26 | -40.93768 | 173.42589 | 26291 ft | 433 kts | 278° |
| 2026-04-25 06:26 | -40.93228 | 173.38657 | 26615 ft | 436 kts | 278° |
| 2026-04-25 06:27 | -40.92683 | 173.34694 | 26941 ft | 438 kts | 278° |
| 2026-04-25 06:27 | -40.92138 | 173.30720 | 27268 ft | 440 kts | 278° |
| 2026-04-25 06:27 | -40.91591 | 173.26728 | 27601 ft | 442 kts | 278° |
| 2026-04-25 06:27 | -40.91039 | 173.22721 | 27931 ft | 445 kts | 278° |
| 2026-04-25 06:28 | -40.90483 | 173.18685 | 28260 ft | 447 kts | 278° |
| 2026-04-25 06:28 | -40.89921 | 173.14637 | 28576 ft | 449 kts | 278° |
| 2026-04-25 06:28 | -40.89351 | 173.10571 | 28981 ft | 449 kts | 278° |
| 2026-04-25 06:28 | -40.88780 | 173.06521 | 29434 ft | 448 kts | 278° |
| 2026-04-25 06:29 | -40.88209 | 173.02481 | 29888 ft | 447 kts | 278° |
| 2026-04-25 06:29 | -40.87639 | 172.98442 | 30355 ft | 446 kts | 278° |
| 2026-04-25 06:29 | -40.87072 | 172.94418 | 30732 ft | 445 kts | 278° |
| 2026-04-25 06:29 | -40.86504 | 172.90392 | 31117 ft | 445 kts | 278° |
| 2026-04-25 06:30 | -40.85938 | 172.86381 | 31492 ft | 444 kts | 278° |
| 2026-04-25 06:30 | -40.85370 | 172.82362 | 31883 ft | 444 kts | 278° |
| 2026-04-25 06:30 | -40.84801 | 172.78356 | 32264 ft | 443 kts | 278° |
| 2026-04-25 06:30 | -40.84239 | 172.74413 | 32646 ft | 443 kts | 278° |
| 2026-04-25 06:31 | -40.83668 | 172.70423 | 33047 ft | 442 kts | 278° |
| 2026-04-25 06:31 | -40.83096 | 172.66438 | 33431 ft | 441 kts | 278° |
| 2026-04-25 06:31 | -40.82524 | 172.62456 | 33821 ft | 441 kts | 278° |
| 2026-04-25 06:31 | -40.81949 | 172.58471 | 34206 ft | 440 kts | 278° |
| 2026-04-25 06:32 | -40.81374 | 172.54508 | 34529 ft | 440 kts | 278° |
| 2026-04-25 06:32 | -40.80797 | 172.50542 | 34837 ft | 439 kts | 278° |
| 2026-04-25 06:32 | -40.80218 | 172.46577 | 35150 ft | 439 kts | 278° |
| 2026-04-25 06:32 | -40.79641 | 172.42631 | 35472 ft | 438 kts | 278° |
| 2026-04-25 06:33 | -40.79064 | 172.38688 | 35771 ft | 437 kts | 278° |
| 2026-04-25 06:33 | -40.78487 | 172.34761 | 36053 ft | 436 kts | 278° |
| 2026-04-25 06:33 | -40.77908 | 172.30835 | 36337 ft | 435 kts | 278° |
| 2026-04-25 06:33 | -40.77332 | 172.26926 | 36615 ft | 434 kts | 278° |
| 2026-04-25 06:34 | -40.76758 | 172.23014 | 36891 ft | 434 kts | 278° |
| 2026-04-25 06:34 | -40.76185 | 172.19109 | 37152 ft | 433 kts | 278° |
| 2026-04-25 06:34 | -40.75613 | 172.15208 | 37397 ft | 432 kts | 278° |
| 2026-04-25 06:34 | -40.75039 | 172.11321 | 37657 ft | 432 kts | 278° |
| 2026-04-25 06:35 | -40.74459 | 172.07431 | 37906 ft | 431 kts | 278° |
| 2026-04-25 06:35 | -40.73884 | 172.03603 | 38140 ft | 431 kts | 278° |
| 2026-04-25 06:35 | -40.73297 | 171.99719 | 38249 ft | 432 kts | 278° |
| 2026-04-25 06:36 | -40.72121 | 171.91937 | 38283 ft | 433 kts | 278° |
| 2026-04-25 06:36 | -40.70955 | 171.84145 | 38282 ft | 433 kts | 278° |
| 2026-04-25 06:37 | -40.69776 | 171.76347 | 38287 ft | 434 kts | 278° |
| 2026-04-25 06:37 | -40.68588 | 171.68553 | 38285 ft | 434 kts | 278° |
| 2026-04-25 06:38 | -40.67389 | 171.60755 | 38291 ft | 434 kts | 278° |
| 2026-04-25 06:38 | -40.66191 | 171.52954 | 38300 ft | 435 kts | 278° |
| 2026-04-25 06:39 | -40.64991 | 171.45196 | 38311 ft | 435 kts | 279° |
| 2026-04-25 06:39 | -40.63776 | 171.37385 | 38315 ft | 435 kts | 278° |
| 2026-04-25 06:40 | -40.62560 | 171.29569 | 38320 ft | 435 kts | 278° |
| 2026-04-25 06:40 | -40.61336 | 171.21760 | 38315 ft | 435 kts | 278° |
| 2026-04-25 06:41 | -40.60113 | 171.13954 | 38321 ft | 436 kts | 278° |
| 2026-04-25 06:41 | -40.58870 | 171.06149 | 38323 ft | 436 kts | 279° |
| 2026-04-25 06:42 | -40.57630 | 170.98356 | 38331 ft | 435 kts | 279° |
| 2026-04-25 06:42 | -40.56386 | 170.90557 | 38324 ft | 435 kts | 279° |
| 2026-04-25 06:43 | -40.55140 | 170.82756 | 38334 ft | 435 kts | 279° |
| 2026-04-25 06:43 | -40.53886 | 170.74966 | 38340 ft | 436 kts | 279° |
| 2026-04-25 06:44 | -40.52627 | 170.67217 | 38330 ft | 436 kts | 280° |
| 2026-04-25 06:44 | -40.51353 | 170.59422 | 38337 ft | 436 kts | 280° |
| 2026-04-25 06:45 | -40.49960 | 170.51634 | 38333 ft | 437 kts | 283° |
| 2026-04-25 06:45 | -40.48292 | 170.43943 | 38345 ft | 438 kts | 284° |
| 2026-04-25 06:46 | -40.46544 | 170.36273 | 38344 ft | 438 kts | 283° |
| 2026-04-25 06:46 | -40.44839 | 170.28583 | 38345 ft | 439 kts | 283° |
| 2026-04-25 06:47 | -40.43157 | 170.20871 | 38348 ft | 439 kts | 284° |
| 2026-04-25 06:47 | -40.41480 | 170.13219 | 38353 ft | 439 kts | 284° |
| 2026-04-25 06:48 | -40.39786 | 170.05508 | 38354 ft | 439 kts | 283° |
| 2026-04-25 06:48 | -40.38082 | 169.97813 | 38358 ft | 440 kts | 283° |
| 2026-04-25 06:49 | -40.36366 | 169.90107 | 38360 ft | 440 kts | 284° |
| 2026-04-25 06:49 | -40.34649 | 169.82397 | 38366 ft | 440 kts | 284° |
| 2026-04-25 06:50 | -40.32919 | 169.74706 | 38367 ft | 439 kts | 283° |
| 2026-04-25 06:50 | -40.31204 | 169.67076 | 38374 ft | 438 kts | 283° |
| 2026-04-25 06:51 | -40.29482 | 169.59417 | 38373 ft | 438 kts | 284° |
| 2026-04-25 06:51 | -40.27757 | 169.51767 | 38378 ft | 438 kts | 284° |
| 2026-04-25 06:52 | -40.26016 | 169.44121 | 38379 ft | 437 kts | 285° |
| 2026-04-25 06:52 | -40.24277 | 169.36492 | 38369 ft | 437 kts | 284° |
| 2026-04-25 06:53 | -40.22538 | 169.28864 | 38373 ft | 437 kts | 283° |
| 2026-04-25 06:53 | -40.20791 | 169.21226 | 38375 ft | 437 kts | 284° |
| 2026-04-25 06:54 | -40.19046 | 169.13657 | 38374 ft | 438 kts | 284° |
| 2026-04-25 06:54 | -40.17282 | 169.06030 | 38384 ft | 438 kts | 284° |
| 2026-04-25 06:55 | -40.15520 | 168.98398 | 38392 ft | 438 kts | 284° |
| 2026-04-25 06:55 | -40.13751 | 168.90774 | 38393 ft | 438 kts | 284° |
| 2026-04-25 06:56 | -40.11979 | 168.83164 | 38387 ft | 438 kts | 284° |
| 2026-04-25 06:56 | -40.10201 | 168.75593 | 38392 ft | 437 kts | 285° |
| 2026-04-25 06:57 | -40.08421 | 168.68000 | 38388 ft | 437 kts | 285° |
| 2026-04-25 06:57 | -40.06638 | 168.60413 | 38393 ft | 437 kts | 285° |
| 2026-04-25 06:58 | -40.04850 | 168.52823 | 38389 ft | 437 kts | 285° |
| 2026-04-25 06:58 | -40.03069 | 168.45297 | 38393 ft | 437 kts | 285° |
| 2026-04-25 06:59 | -40.01269 | 168.37719 | 38396 ft | 437 kts | 285° |
| 2026-04-25 06:59 | -39.99455 | 168.30137 | 38390 ft | 437 kts | 285° |
| 2026-04-25 07:00 | -39.97640 | 168.22565 | 38403 ft | 437 kts | 285° |
| 2026-04-25 07:00 | -39.95827 | 168.15012 | 38402 ft | 437 kts | 285° |
| 2026-04-25 07:01 | -39.94009 | 168.07452 | 38406 ft | 437 kts | 285° |
| 2026-04-25 07:01 | -39.92187 | 167.99893 | 38411 ft | 436 kts | 286° |
| 2026-04-25 07:02 | -39.90361 | 167.92351 | 38405 ft | 436 kts | 285° |
| 2026-04-25 07:02 | -39.88534 | 167.84865 | 38399 ft | 436 kts | 286° |
| 2026-04-25 07:03 | -39.86696 | 167.77339 | 38403 ft | 436 kts | 286° |
| 2026-04-25 07:03 | -39.84851 | 167.69808 | 38396 ft | 436 kts | 285° |
| 2026-04-25 07:04 | -39.83004 | 167.62277 | 38412 ft | 436 kts | 286° |
| 2026-04-25 07:04 | -39.81157 | 167.54757 | 38412 ft | 436 kts | 286° |
| 2026-04-25 07:05 | -39.79318 | 167.47291 | 38401 ft | 437 kts | 286° |
| 2026-04-25 07:05 | -39.77447 | 167.39756 | 38402 ft | 437 kts | 286° |
| 2026-04-25 07:06 | -39.75573 | 167.32232 | 38405 ft | 438 kts | 287° |
| 2026-04-25 07:06 | -39.74010 | 167.25965 | 38408 ft | 438 kts | 287° |
| 2026-04-25 07:07 | -39.72128 | 167.18436 | 38408 ft | 438 kts | 287° |
| 2026-04-25 07:07 | -39.70237 | 167.10902 | 38408 ft | 439 kts | 286° |
| 2026-04-25 07:08 | -39.68340 | 167.03350 | 38404 ft | 440 kts | 286° |
| 2026-04-25 07:08 | -39.66434 | 166.95785 | 38408 ft | 440 kts | 287° |
| 2026-04-25 07:09 | -39.64523 | 166.88246 | 38418 ft | 440 kts | 287° |
| 2026-04-25 07:09 | -39.62607 | 166.80712 | 38417 ft | 440 kts | 287° |
| 2026-04-25 07:10 | -39.60695 | 166.73238 | 38426 ft | 439 kts | 287° |
| 2026-04-25 07:10 | -39.58770 | 166.65712 | 38422 ft | 439 kts | 287° |
| 2026-04-25 07:11 | -39.56847 | 166.58186 | 38426 ft | 440 kts | 287° |
| 2026-04-25 07:11 | -39.54915 | 166.50659 | 38421 ft | 440 kts | 287° |
| 2026-04-25 07:12 | -39.52973 | 166.43128 | 38418 ft | 440 kts | 287° |
| 2026-04-25 07:12 | -39.50053 | 166.31853 | 38430 ft | 440 kts | 287° |
| 2026-04-25 07:13 | -39.48105 | 166.24350 | 38434 ft | 439 kts | 288° |
| 2026-04-25 07:13 | -39.46167 | 166.16916 | 38433 ft | 438 kts | 288° |
| 2026-04-25 07:14 | -39.44218 | 166.09430 | 38419 ft | 439 kts | 288° |
| 2026-04-25 07:14 | -39.42261 | 166.01956 | 38423 ft | 439 kts | 287° |
| 2026-04-25 07:15 | -39.40290 | 165.94458 | 38425 ft | 440 kts | 288° |
| 2026-04-25 07:15 | -39.38312 | 165.86973 | 38433 ft | 440 kts | 288° |
| 2026-04-25 07:16 | -39.36321 | 165.79466 | 38427 ft | 441 kts | 288° |
| 2026-04-25 07:16 | -39.34340 | 165.72008 | 38429 ft | 441 kts | 288° |
| 2026-04-25 07:17 | -39.32339 | 165.64503 | 38432 ft | 441 kts | 288° |
| 2026-04-25 07:17 | -39.30337 | 165.56997 | 38435 ft | 441 kts | 288° |
| 2026-04-25 07:18 | -39.28328 | 165.49507 | 38436 ft | 442 kts | 288° |
| 2026-04-25 07:18 | -39.26308 | 165.41996 | 38437 ft | 442 kts | 288° |
| 2026-04-25 07:19 | -39.24302 | 165.34551 | 38440 ft | 442 kts | 288° |
| 2026-04-25 07:19 | -39.22272 | 165.27052 | 38445 ft | 442 kts | 288° |
| 2026-04-25 07:20 | -39.20256 | 165.19571 | 38447 ft | 442 kts | 288° |
| 2026-04-25 07:20 | -39.18226 | 165.12084 | 38441 ft | 442 kts | 289° |
| 2026-04-25 07:21 | -39.16188 | 165.04611 | 38439 ft | 442 kts | 289° |
| 2026-04-25 07:21 | -39.14141 | 164.97144 | 38436 ft | 442 kts | 288° |
| 2026-04-25 07:22 | -39.12104 | 164.89712 | 38444 ft | 442 kts | 289° |
| 2026-04-25 07:22 | -39.10060 | 164.82240 | 38445 ft | 442 kts | 289° |
| 2026-04-25 07:23 | -39.08002 | 164.74775 | 38452 ft | 442 kts | 289° |
| 2026-04-25 07:23 | -39.05936 | 164.67321 | 38445 ft | 442 kts | 289° |
| 2026-04-25 07:24 | -39.03864 | 164.59871 | 38449 ft | 442 kts | 289° |
| 2026-04-25 07:24 | -39.01794 | 164.52423 | 38450 ft | 442 kts | 289° |
| 2026-04-25 07:25 | -38.99723 | 164.44979 | 38454 ft | 442 kts | 289° |
| 2026-04-25 07:25 | -38.97650 | 164.37590 | 38455 ft | 442 kts | 289° |
| 2026-04-25 07:26 | -38.95568 | 164.30166 | 38454 ft | 441 kts | 289° |
| 2026-04-25 07:26 | -38.93486 | 164.22748 | 38447 ft | 442 kts | 289° |
| 2026-04-25 07:27 | -38.91397 | 164.15319 | 38445 ft | 442 kts | 289° |
| 2026-04-25 07:27 | -38.89287 | 164.07882 | 38445 ft | 443 kts | 289° |
| 2026-04-25 07:28 | -38.87172 | 164.00451 | 38454 ft | 443 kts | 289° |
| 2026-04-25 07:28 | -38.85056 | 163.93011 | 38458 ft | 443 kts | 289° |
| 2026-04-25 07:29 | -38.82952 | 163.85633 | 38457 ft | 443 kts | 289° |
| 2026-04-25 07:29 | -38.80828 | 163.78216 | 38460 ft | 443 kts | 289° |
| 2026-04-25 07:30 | -38.78697 | 163.70793 | 38458 ft | 443 kts | 289° |
| 2026-04-25 07:30 | -38.76567 | 163.63363 | 38465 ft | 444 kts | 289° |
| 2026-04-25 07:31 | -38.74434 | 163.55948 | 38469 ft | 444 kts | 289° |
| 2026-04-25 07:31 | -38.72282 | 163.48527 | 38472 ft | 444 kts | 289° |
| 2026-04-25 07:32 | -38.70125 | 163.41107 | 38462 ft | 444 kts | 290° |
| 2026-04-25 07:32 | -38.67975 | 163.33720 | 38480 ft | 444 kts | 289° |
| 2026-04-25 07:33 | -38.65820 | 163.26311 | 38466 ft | 444 kts | 289° |
| 2026-04-25 07:33 | -38.63655 | 163.18909 | 38471 ft | 444 kts | 290° |
| 2026-04-25 07:34 | -38.61482 | 163.11516 | 38462 ft | 444 kts | 290° |
| 2026-04-25 07:34 | -38.59308 | 163.04121 | 38471 ft | 444 kts | 290° |
| 2026-04-25 07:35 | -38.57108 | 162.96733 | 38473 ft | 444 kts | 290° |
| 2026-04-25 07:35 | -38.54832 | 162.89394 | 38478 ft | 444 kts | 291° |
| 2026-04-25 07:36 | -38.52548 | 162.82112 | 38469 ft | 445 kts | 291° |
| 2026-04-25 07:36 | -38.50250 | 162.74773 | 38462 ft | 445 kts | 291° |
| 2026-04-25 07:37 | -38.47949 | 162.67424 | 38462 ft | 446 kts | 291° |
| 2026-04-25 07:37 | -38.45643 | 162.60076 | 38462 ft | 446 kts | 291° |
| 2026-04-25 07:38 | -38.43337 | 162.52717 | 38460 ft | 447 kts | 291° |
| 2026-04-25 07:38 | -38.41015 | 162.45358 | 38473 ft | 447 kts | 291° |
| 2026-04-25 07:39 | -38.38681 | 162.37996 | 38477 ft | 448 kts | 291° |
| 2026-04-25 07:39 | -38.36341 | 162.30626 | 38482 ft | 448 kts | 291° |
| 2026-04-25 07:40 | -38.34001 | 162.23261 | 38471 ft | 448 kts | 291° |
| 2026-04-25 07:40 | -38.31664 | 162.15904 | 38476 ft | 448 kts | 291° |
| 2026-04-25 07:41 | -38.29323 | 162.08540 | 38484 ft | 449 kts | 291° |
| 2026-04-25 07:41 | -38.26982 | 162.01239 | 38479 ft | 449 kts | 291° |
| 2026-04-25 07:42 | -38.24607 | 161.93875 | 38480 ft | 449 kts | 291° |
| 2026-04-25 07:42 | -38.22242 | 161.86525 | 38488 ft | 449 kts | 291° |
| 2026-04-25 07:43 | -38.19865 | 161.79165 | 38483 ft | 449 kts | 291° |
| 2026-04-25 07:43 | -38.17485 | 161.71815 | 38482 ft | 450 kts | 291° |
| 2026-04-25 07:44 | -38.15105 | 161.64467 | 38495 ft | 450 kts | 291° |
| 2026-04-25 07:44 | -38.12734 | 161.57174 | 38494 ft | 449 kts | 291° |
| 2026-04-25 07:45 | -38.10340 | 161.49840 | 38488 ft | 449 kts | 291° |
| 2026-04-25 07:45 | -38.07942 | 161.42501 | 38497 ft | 450 kts | 292° |
| 2026-04-25 07:46 | -38.05538 | 161.35159 | 38476 ft | 450 kts | 292° |
| 2026-04-25 07:46 | -38.03129 | 161.27829 | 38483 ft | 451 kts | 292° |
| 2026-04-25 07:47 | -38.00728 | 161.20529 | 38480 ft | 451 kts | 292° |
| 2026-04-25 07:47 | -37.98299 | 161.13197 | 38486 ft | 451 kts | 292° |
| 2026-04-25 07:48 | -37.95865 | 161.05860 | 38485 ft | 451 kts | 292° |
| 2026-04-25 07:48 | -37.93433 | 160.98512 | 38482 ft | 451 kts | 292° |
| 2026-04-25 07:49 | -37.90998 | 160.91189 | 38485 ft | 451 kts | 292° |
| 2026-04-25 07:49 | -37.88553 | 160.83869 | 38481 ft | 451 kts | 292° |
| 2026-04-25 07:50 | -37.86121 | 160.76601 | 38483 ft | 451 kts | 292° |
| 2026-04-25 07:50 | -37.83672 | 160.69270 | 38488 ft | 452 kts | 292° |
| 2026-04-25 07:51 | -37.81216 | 160.61956 | 38490 ft | 451 kts | 292° |
| 2026-04-25 07:51 | -37.78753 | 160.54642 | 38485 ft | 451 kts | 292° |
| 2026-04-25 07:52 | -37.76278 | 160.47334 | 38480 ft | 452 kts | 292° |
| 2026-04-25 07:52 | -37.73794 | 160.40036 | 38484 ft | 452 kts | 292° |
| 2026-04-25 07:53 | -37.71313 | 160.32733 | 38489 ft | 452 kts | 292° |
| 2026-04-25 07:53 | -37.68839 | 160.25428 | 38494 ft | 452 kts | 292° |
| 2026-04-25 07:54 | -37.66375 | 160.18179 | 38487 ft | 452 kts | 292° |
| 2026-04-25 07:54 | -37.63872 | 160.10879 | 38489 ft | 452 kts | 292° |
| 2026-04-25 07:55 | -37.61378 | 160.03591 | 38490 ft | 453 kts | 292° |
| 2026-04-25 07:55 | -37.59292 | 159.97527 | 38484 ft | 453 kts | 292° |
| 2026-04-25 07:56 | -37.56774 | 159.90228 | 38488 ft | 454 kts | 292° |
| 2026-04-25 07:56 | -37.53845 | 159.81754 | 38487 ft | 454 kts | 292° |
| 2026-04-25 07:57 | -37.51728 | 159.75638 | 38482 ft | 454 kts | 292° |
| 2026-04-25 07:57 | -37.49201 | 159.68352 | 38483 ft | 454 kts | 292° |
| 2026-04-25 07:58 | -37.46677 | 159.61097 | 38491 ft | 454 kts | 293° |
| 2026-04-25 07:58 | -37.44130 | 159.53806 | 38488 ft | 454 kts | 293° |
| 2026-04-25 07:59 | -37.41580 | 159.46519 | 38481 ft | 454 kts | 292° |
| 2026-04-25 07:59 | -37.39049 | 159.39297 | 38486 ft | 454 kts | 292° |
| 2026-04-25 08:00 | -37.36499 | 159.32028 | 38486 ft | 454 kts | 293° |
| 2026-04-25 08:00 | -37.33934 | 159.24754 | 38486 ft | 455 kts | 293° |
| 2026-04-25 08:01 | -37.31369 | 159.17500 | 38485 ft | 455 kts | 293° |
| 2026-04-25 08:01 | -37.28801 | 159.10235 | 38486 ft | 455 kts | 292° |
| 2026-04-25 08:02 | -37.26230 | 159.02980 | 38487 ft | 455 kts | 293° |
| 2026-04-25 08:02 | -37.23665 | 158.95769 | 38487 ft | 455 kts | 293° |
| 2026-04-25 08:03 | -37.21082 | 158.88524 | 38488 ft | 455 kts | 293° |
| 2026-04-25 08:03 | -37.18496 | 158.81281 | 38486 ft | 455 kts | 293° |
| 2026-04-25 08:04 | -37.15883 | 158.73997 | 38495 ft | 455 kts | 293° |
| 2026-04-25 08:04 | -37.13303 | 158.66803 | 38488 ft | 456 kts | 293° |
| 2026-04-25 08:05 | -37.10698 | 158.59566 | 38480 ft | 456 kts | 293° |
| 2026-04-25 08:05 | -37.08083 | 158.52310 | 38485 ft | 457 kts | 293° |
| 2026-04-25 08:06 | -37.05460 | 158.45055 | 38484 ft | 457 kts | 293° |
| 2026-04-25 08:06 | -37.02833 | 158.37810 | 38486 ft | 457 kts | 293° |
| 2026-04-25 08:07 | -37.00203 | 158.30565 | 38491 ft | 457 kts | 293° |
| 2026-04-25 08:07 | -36.97575 | 158.23321 | 38492 ft | 457 kts | 293° |
| 2026-04-25 08:08 | -36.94938 | 158.16084 | 38481 ft | 457 kts | 293° |
| 2026-04-25 08:08 | -36.92290 | 158.08856 | 38487 ft | 457 kts | 293° |
| 2026-04-25 08:09 | -36.89651 | 158.01673 | 38487 ft | 457 kts | 294° |
| 2026-04-25 08:09 | -36.86997 | 157.94457 | 38485 ft | 457 kts | 293° |
| 2026-04-25 08:10 | -36.84338 | 157.87236 | 38480 ft | 457 kts | 294° |
| 2026-04-25 08:10 | -36.81669 | 157.80020 | 38479 ft | 457 kts | 294° |
| 2026-04-25 08:11 | -36.78999 | 157.72814 | 38481 ft | 457 kts | 294° |
| 2026-04-25 08:11 | -36.76343 | 157.65658 | 38478 ft | 457 kts | 294° |
| 2026-04-25 08:12 | -36.73663 | 157.58463 | 38479 ft | 457 kts | 294° |
| 2026-04-25 08:12 | -36.70984 | 157.51266 | 38469 ft | 457 kts | 294° |
| 2026-04-25 08:13 | -36.68298 | 157.44069 | 38485 ft | 457 kts | 294° |
| 2026-04-25 08:14 | -36.64279 | 157.33323 | 38474 ft | 458 kts | 294° |
| 2026-04-25 08:14 | -36.61574 | 157.26139 | 38475 ft | 459 kts | 294° |
| 2026-04-25 08:15 | -36.58859 | 157.18952 | 38473 ft | 459 kts | 294° |
| 2026-04-25 08:15 | -36.56145 | 157.11760 | 38475 ft | 459 kts | 294° |
| 2026-04-25 08:16 | -36.53419 | 157.04574 | 38479 ft | 459 kts | 294° |
| 2026-04-25 08:16 | -36.50696 | 156.97373 | 38477 ft | 459 kts | 294° |
| 2026-04-25 08:17 | -36.47972 | 156.90186 | 38476 ft | 460 kts | 294° |
| 2026-04-25 08:17 | -36.45244 | 156.83049 | 38478 ft | 459 kts | 294° |
| 2026-04-25 08:18 | -36.42503 | 156.75878 | 38478 ft | 459 kts | 294° |
| 2026-04-25 08:18 | -36.39767 | 156.68698 | 38478 ft | 459 kts | 294° |
| 2026-04-25 08:19 | -36.37019 | 156.61539 | 38475 ft | 459 kts | 294° |
| 2026-04-25 08:19 | -36.34265 | 156.54391 | 38470 ft | 459 kts | 294° |
| 2026-04-25 08:20 | -36.31508 | 156.47238 | 38471 ft | 459 kts | 294° |
| 2026-04-25 08:20 | -36.28758 | 156.40099 | 38474 ft | 459 kts | 294° |
| 2026-04-25 08:21 | -36.25997 | 156.32968 | 38474 ft | 459 kts | 294° |
| 2026-04-25 08:21 | -36.23244 | 156.25882 | 38474 ft | 459 kts | 294° |
| 2026-04-25 08:22 | -36.20472 | 156.18770 | 38466 ft | 458 kts | 294° |
| 2026-04-25 08:22 | -36.17699 | 156.11664 | 38476 ft | 458 kts | 294° |
| 2026-04-25 08:23 | -36.14926 | 156.04553 | 38464 ft | 459 kts | 294° |
| 2026-04-25 08:23 | -36.12137 | 155.97434 | 38464 ft | 459 kts | 294° |
| 2026-04-25 08:24 | -36.09350 | 155.90319 | 38461 ft | 460 kts | 294° |
| 2026-04-25 08:24 | -36.06560 | 155.83206 | 38467 ft | 460 kts | 294° |
| 2026-04-25 08:25 | -36.03774 | 155.76151 | 38466 ft | 460 kts | 294° |
| 2026-04-25 08:25 | -36.00969 | 155.69054 | 38465 ft | 459 kts | 294° |
| 2026-04-25 08:26 | -35.98158 | 155.61966 | 38462 ft | 459 kts | 294° |
| 2026-04-25 08:26 | -35.95350 | 155.54885 | 38465 ft | 459 kts | 294° |
| 2026-04-25 08:27 | -35.92542 | 155.47816 | 38460 ft | 458 kts | 294° |
| 2026-04-25 08:27 | -35.89728 | 155.40761 | 38460 ft | 458 kts | 294° |
| 2026-04-25 08:28 | -35.86917 | 155.33713 | 38461 ft | 458 kts | 294° |
| 2026-04-25 08:28 | -35.84111 | 155.26676 | 38461 ft | 458 kts | 294° |
| 2026-04-25 08:29 | -35.81307 | 155.19681 | 38455 ft | 458 kts | 295° |
| 2026-04-25 08:29 | -35.78472 | 155.12647 | 38452 ft | 458 kts | 295° |
| 2026-04-25 08:30 | -35.75641 | 155.05625 | 38449 ft | 458 kts | 295° |
| 2026-04-25 08:30 | -35.72807 | 154.98602 | 38455 ft | 458 kts | 295° |
| 2026-04-25 08:31 | -35.69969 | 154.91569 | 38460 ft | 458 kts | 295° |
| 2026-04-25 08:31 | -35.67122 | 154.84547 | 38453 ft | 458 kts | 295° |
| 2026-04-25 08:32 | -35.64292 | 154.77586 | 38458 ft | 458 kts | 295° |
| 2026-04-25 08:32 | -35.61417 | 154.70612 | 38454 ft | 458 kts | 299° |
| 2026-04-25 08:33 | -35.57576 | 154.64349 | 38442 ft | 459 kts | 310° |
| 2026-04-25 08:33 | -35.53413 | 154.58394 | 38449 ft | 459 kts | 309° |
| 2026-04-25 08:34 | -35.49256 | 154.52431 | 38457 ft | 459 kts | 309° |
| 2026-04-25 08:34 | -35.45097 | 154.46489 | 38445 ft | 459 kts | 310° |
| 2026-04-25 08:35 | -35.40927 | 154.40549 | 38448 ft | 459 kts | 310° |
| 2026-04-25 08:35 | -35.36781 | 154.34649 | 38437 ft | 459 kts | 310° |
| 2026-04-25 08:36 | -35.32617 | 154.28726 | 38436 ft | 459 kts | 310° |
| 2026-04-25 08:36 | -35.28433 | 154.22790 | 38402 ft | 462 kts | 310° |
| 2026-04-25 08:37 | -35.24210 | 154.16824 | 38401 ft | 464 kts | 310° |
| 2026-04-25 08:37 | -35.19971 | 154.10831 | 38401 ft | 466 kts | 310° |
| 2026-04-25 08:38 | -35.15714 | 154.04826 | 38398 ft | 467 kts | 310° |
| 2026-04-25 08:38 | -35.11479 | 153.98868 | 38409 ft | 467 kts | 310° |
| 2026-04-25 08:39 | -35.07209 | 153.92869 | 38426 ft | 468 kts | 310° |
| 2026-04-25 08:39 | -35.02938 | 153.86877 | 38429 ft | 468 kts | 310° |
| 2026-04-25 08:40 | -34.98664 | 153.80885 | 38436 ft | 468 kts | 310° |
| 2026-04-25 08:40 | -34.94384 | 153.74896 | 38430 ft | 468 kts | 310° |
| 2026-04-25 08:41 | -34.90098 | 153.68924 | 38413 ft | 468 kts | 310° |
| 2026-04-25 08:41 | -34.85810 | 153.62943 | 38431 ft | 468 kts | 310° |
| 2026-04-25 08:42 | -34.81522 | 153.56969 | 38426 ft | 468 kts | 310° |
| 2026-04-25 08:42 | -34.77255 | 153.51042 | 38402 ft | 468 kts | 310° |
| 2026-04-25 08:42 | -34.75119 | 153.48080 | 38137 ft | 463 kts | 310° |
| 2026-04-25 08:43 | -34.73017 | 153.45164 | 37869 ft | 456 kts | 310° |
| 2026-04-25 08:43 | -34.70932 | 153.42273 | 37592 ft | 453 kts | 310° |
| 2026-04-25 08:43 | -34.68856 | 153.39394 | 37327 ft | 452 kts | 310° |
| 2026-04-25 08:43 | -34.66775 | 153.36517 | 37072 ft | 452 kts | 310° |
| 2026-04-25 08:44 | -34.64696 | 153.33651 | 36810 ft | 452 kts | 310° |
| 2026-04-25 08:44 | -34.62610 | 153.30781 | 36555 ft | 454 kts | 310° |
| 2026-04-25 08:44 | -34.61223 | 153.28870 | 36390 ft | 455 kts | 310° |
| 2026-04-25 08:44 | -34.59129 | 153.25989 | 36143 ft | 456 kts | 310° |
| 2026-04-25 08:45 | -34.57027 | 153.23098 | 35888 ft | 457 kts | 310° |
| 2026-04-25 08:45 | -34.54927 | 153.20207 | 35644 ft | 458 kts | 309° |
| 2026-04-25 08:45 | -34.52820 | 153.17304 | 35402 ft | 458 kts | 309° |
| 2026-04-25 08:45 | -34.50705 | 153.14392 | 35152 ft | 458 kts | 309° |
| 2026-04-25 08:46 | -34.48602 | 153.11509 | 34717 ft | 456 kts | 309° |
| 2026-04-25 08:46 | -34.46528 | 153.08665 | 34171 ft | 456 kts | 309° |
| 2026-04-25 08:46 | -34.44428 | 153.05785 | 33638 ft | 453 kts | 310° |
| 2026-04-25 08:46 | -34.42340 | 153.02928 | 33106 ft | 451 kts | 310° |
| 2026-04-25 08:47 | -34.40265 | 153.00094 | 32566 ft | 449 kts | 310° |
| 2026-04-25 08:47 | -34.38183 | 152.97254 | 32010 ft | 448 kts | 310° |
| 2026-04-25 08:47 | -34.36114 | 152.94431 | 31454 ft | 447 kts | 310° |
| 2026-04-25 08:47 | -34.34054 | 152.91621 | 30882 ft | 447 kts | 310° |
| 2026-04-25 08:48 | -34.32017 | 152.88837 | 30282 ft | 446 kts | 310° |
| 2026-04-25 08:48 | -34.29961 | 152.86029 | 29691 ft | 444 kts | 310° |
| 2026-04-25 08:48 | -34.27920 | 152.83245 | 29114 ft | 442 kts | 310° |
| 2026-04-25 08:48 | -34.25884 | 152.80471 | 28551 ft | 439 kts | 310° |
| 2026-04-25 08:49 | -34.23859 | 152.77718 | 27992 ft | 437 kts | 311° |
| 2026-04-25 08:49 | -34.21842 | 152.74981 | 27431 ft | 435 kts | 311° |
| 2026-04-25 08:49 | -34.19836 | 152.72264 | 26877 ft | 433 kts | 311° |
| 2026-04-25 08:49 | -34.17835 | 152.69553 | 26332 ft | 431 kts | 311° |
| 2026-04-25 08:50 | -34.15865 | 152.66881 | 25795 ft | 429 kts | 311° |
| 2026-04-25 08:50 | -34.13879 | 152.64195 | 25274 ft | 427 kts | 311° |
| 2026-04-25 08:50 | -34.11902 | 152.61527 | 24757 ft | 426 kts | 312° |
| 2026-04-25 08:50 | -34.10073 | 152.58734 | 24266 ft | 423 kts | 302° |
| 2026-04-25 08:51 | -34.08717 | 152.55597 | 23736 ft | 421 kts | 291° |
| 2026-04-25 08:51 | -34.07889 | 152.52228 | 23256 ft | 416 kts | 279° |
| 2026-04-25 08:51 | -34.07518 | 152.48800 | 22801 ft | 410 kts | 275° |
| 2026-04-25 08:51 | -34.07204 | 152.45393 | 22330 ft | 406 kts | 275° |
| 2026-04-25 08:52 | -34.06882 | 152.42017 | 21869 ft | 403 kts | 275° |
| 2026-04-25 08:52 | -34.06560 | 152.38677 | 21380 ft | 399 kts | 275° |
| 2026-04-25 08:52 | -34.06240 | 152.35360 | 20903 ft | 396 kts | 275° |
| 2026-04-25 08:52 | -34.05923 | 152.32071 | 20410 ft | 394 kts | 275° |
| 2026-04-25 08:53 | -34.05610 | 152.28797 | 19915 ft | 391 kts | 275° |
| 2026-04-25 08:53 | -34.05297 | 152.25547 | 19417 ft | 389 kts | 276° |
| 2026-04-25 08:53 | -34.04987 | 152.22313 | 18902 ft | 387 kts | 276° |
| 2026-04-25 08:53 | -34.04681 | 152.19102 | 18349 ft | 385 kts | 276° |
| 2026-04-25 08:54 | -34.04374 | 152.15907 | 17829 ft | 381 kts | 276° |
| 2026-04-25 08:54 | -34.04073 | 152.12778 | 17323 ft | 378 kts | 276° |
| 2026-04-25 08:54 | -34.03769 | 152.09641 | 16812 ft | 375 kts | 275° |
| 2026-04-25 08:54 | -34.03468 | 152.06520 | 16307 ft | 372 kts | 275° |
| 2026-04-25 08:55 | -34.03167 | 152.03433 | 15793 ft | 370 kts | 275° |
| 2026-04-25 08:55 | -34.02861 | 152.00359 | 15309 ft | 368 kts | 276° |
| 2026-04-25 08:55 | -34.02551 | 151.97308 | 14787 ft | 366 kts | 275° |
| 2026-04-25 08:55 | -34.02239 | 151.94273 | 14305 ft | 364 kts | 276° |
| 2026-04-25 08:56 | -34.01930 | 151.91253 | 13745 ft | 362 kts | 275° |
| 2026-04-25 08:56 | -34.01627 | 151.88259 | 13266 ft | 358 kts | 276° |
| 2026-04-25 08:56 | -34.01325 | 151.85290 | 12774 ft | 355 kts | 276° |
| 2026-04-25 08:56 | -34.01022 | 151.82345 | 12280 ft | 352 kts | 276° |
| 2026-04-25 08:57 | -34.00722 | 151.79426 | 11797 ft | 350 kts | 276° |
| 2026-04-25 08:57 | -34.00426 | 151.76522 | 11441 ft | 345 kts | 276° |
| 2026-04-25 08:57 | -34.00133 | 151.73665 | 11366 ft | 340 kts | 276° |
| 2026-04-25 08:57 | -33.99850 | 151.70900 | 11377 ft | 324 kts | 276° |
| 2026-04-25 08:58 | -33.99581 | 151.68292 | 11377 ft | 312 kts | 276° |
| 2026-04-25 08:58 | -33.99317 | 151.65703 | 11060 ft | 310 kts | 276° |
| 2026-04-25 08:58 | -33.99053 | 151.63133 | 10472 ft | 308 kts | 276° |
| 2026-04-25 08:58 | -33.98787 | 151.60578 | 9813 ft | 307 kts | 276° |
| 2026-04-25 08:59 | -33.98521 | 151.58052 | 9262 ft | 301 kts | 276° |
| 2026-04-25 08:59 | -33.98258 | 151.55563 | 8726 ft | 299 kts | 276° |
| 2026-04-25 08:59 | -33.98001 | 151.53102 | 8535 ft | 294 kts | 276° |
| 2026-04-25 08:59 | -33.97749 | 151.50671 | 8314 ft | 289 kts | 277° |
| 2026-04-25 09:00 | -33.97503 | 151.48274 | 8083 ft | 288 kts | 276° |
| 2026-04-25 09:00 | -33.97257 | 151.45884 | 7860 ft | 287 kts | 277° |
| 2026-04-25 09:00 | -33.97054 | 151.43507 | 7629 ft | 284 kts | 268° |
| 2026-04-25 09:00 | -33.97508 | 151.41236 | 7411 ft | 281 kts | 240° |
| 2026-04-25 09:01 | -33.98759 | 151.39468 | 7113 ft | 278 kts | 213° |
| 2026-04-25 09:01 | -34.00514 | 151.38611 | 6825 ft | 273 kts | 186° |
| 2026-04-25 09:01 | -34.02356 | 151.38826 | 6492 ft | 270 kts | 160° |
| 2026-04-25 09:01 | -34.04080 | 151.39718 | 6116 ft | 271 kts | 154° |
| 2026-04-25 09:02 | -34.05781 | 151.40712 | 5757 ft | 271 kts | 153° |
| 2026-04-25 09:02 | -34.07479 | 151.41709 | 5412 ft | 271 kts | 156° |
| 2026-04-25 09:02 | -34.09322 | 151.42129 | 5071 ft | 272 kts | 184° |
| 2026-04-25 09:02 | -34.11109 | 151.41459 | 4728 ft | 271 kts | 212° |
| 2026-04-25 09:03 | -34.12482 | 151.39915 | 4359 ft | 271 kts | 231° |
| 2026-04-25 09:03 | -34.13667 | 151.38140 | 4012 ft | 272 kts | 233° |
| 2026-04-25 09:03 | -34.14833 | 151.36338 | 3684 ft | 272 kts | 232° |
| 2026-04-25 09:03 | -34.15995 | 151.34534 | 3350 ft | 272 kts | 233° |
| 2026-04-25 09:04 | -34.17130 | 151.32715 | 3051 ft | 269 kts | 242° |
| 2026-04-25 09:04 | -34.17633 | 151.30628 | 2999 ft | 262 kts | 271° |
| 2026-04-25 09:04 | -34.17236 | 151.28524 | 3008 ft | 257 kts | 301° |
| 2026-04-25 09:04 | -34.16074 | 151.26882 | 3012 ft | 255 kts | 320° |
| 2026-04-25 09:05 | -34.14734 | 151.25516 | 3003 ft | 246 kts | 323° |
| 2026-04-25 09:05 | -34.13468 | 151.24255 | 3002 ft | 231 kts | 323° |
| 2026-04-25 09:05 | -34.12263 | 151.23062 | 3011 ft | 216 kts | 322° |
| 2026-04-25 09:05 | -34.11104 | 151.21996 | 2909 ft | 204 kts | 336° |
| 2026-04-25 09:06 | -34.09771 | 151.21529 | 2680 ft | 199 kts | 349° |
| 2026-04-25 09:06 | -34.08443 | 151.21188 | 2435 ft | 189 kts | 351° |
| 2026-04-25 09:06 | -34.07212 | 151.20868 | 2200 ft | 175 kts | 352° |
| 2026-04-25 09:06 | -34.06061 | 151.20568 | 1958 ft | 163 kts | 352° |
| 2026-04-25 09:07 | -34.05015 | 151.20295 | 1763 ft | 147 kts | 353° |
| 2026-04-25 09:07 | -34.04065 | 151.20048 | 1565 ft | 135 kts | 353° |
| 2026-04-25 09:07 | -34.03150 | 151.19811 | 1391 ft | 137 kts | 351° |
| 2026-04-25 09:07 | -34.02221 | 151.19570 | 1201 ft | 134 kts | 354° |
| 2026-04-25 09:08 | -34.01329 | 151.19339 | 1037 ft | 133 kts | 354° |
| 2026-04-25 09:08 | -34.00432 | 151.19106 | 857 ft | 131 kts | 352° |
| 2026-04-25 09:08 | -33.99539 | 151.18874 | 688 ft | 132 kts | 352° |
| 2026-04-25 09:08 | -33.98635 | 151.18639 | 512 ft | 130 kts | 351° |
| 2026-04-25 09:09 | -33.97735 | 151.18405 | 316 ft | 133 kts | 351° |
| 2026-04-25 09:09 | -33.96832 | 151.18162 | 146 ft | 133 kts | 351° |
| 2026-04-25 09:09 | -33.95947 | 151.17941 | 31 ft | 122 kts | 350° |
| 2026-04-25 09:09 | -33.95269 | 151.17765 | 29 ft | 74 kts | 348° |
| 2026-04-25 09:10 | -33.94917 | 151.17674 | 29 ft | 40 kts | 348° |
| 2026-04-25 09:10 | -33.94660 | 151.17604 | 30 ft | 36 kts | 342° |
| 2026-04-25 09:10 | -33.94461 | 151.17491 | 30 ft | 24 kts | 326° |
| 2026-04-25 09:10 | -33.94351 | 151.17383 | 29 ft | 3 kts | 319° |
| 2026-04-25 09:11 | -33.94338 | 151.17369 | 30 ft | 4 kts | 317° |
| 2026-04-25 09:11 | -33.94311 | 151.17339 | 30 ft | 7 kts | 318° |
| 2026-04-25 09:11 | -33.94234 | 151.17293 | 29 ft | 17 kts | 348° |
| 2026-04-25 09:12 | -33.94108 | 151.17260 | 29 ft | 20 kts | 347° |
| 2026-04-25 09:12 | -33.93992 | 151.17222 | 29 ft | 10 kts | 316° |
| 2026-04-25 09:12 | -33.93992 | 151.17134 | 30 ft | 12 kts | 253° |
| 2026-04-25 09:12 | -33.94017 | 151.17029 | 30 ft | 14 kts | 254° |
| 2026-04-25 09:13 | -33.94046 | 151.16906 | 30 ft | 16 kts | 255° |
| 2026-04-25 09:13 | -33.94079 | 151.16764 | 30 ft | 19 kts | 253° |
| 2026-04-25 09:13 | -33.94115 | 151.16614 | 30 ft | 17 kts | 255° |
| 2026-04-25 09:13 | -33.94138 | 151.16504 | 30 ft | 9 kts | 264° |
| 2026-04-25 09:14 | -33.94090 | 151.16479 | 30 ft | 9 kts | 347° |
| 2026-04-25 09:14 | -33.94042 | 151.16464 | 30 ft | 2 kts | 345° |